Tiempo atmosférico en la estación meteorológica de Barco De Avila, Ávila (1012 m.)



Fecha
DESCASC
Temp. máxima en grados centígrados (hora)
DESCASC
Temp. mínima en grados centígrados (hora)
DESCASC
Temp. media en grados centígrados
DESCASC
Racha de viento máxima en m/sg (hora)
DESCASC
Velocidad máxima media en intervalos de 10 minutos(hora)
DESCASC
Precipitaciones diarias en mm
DESCASC
Precipitaciones de 00:00 a 06:00 en mm
DESCASC
Precipitaciones de 06:00 a 12:00 en mm
DESCASC
Precipitaciones de 12:00 a 18:00 en mm
DESCASC
Precipitaciones de 18:00 a 24:00 en mm
DESCASC
31-03-2020 9.3 (15:30) -0.7 (05:40) 4.3 7.5 (16:50) 4.72 (16:50) 1.6 0 0 0 1.6
30-03-2020 7.2 (00:00) -0.3 (22:00) 3.4 7.22 (08:40) 4.72 (08:40) 7.8 0 3.8 1.8 2.2
29-03-2020 15.5 (16:00) -1.1 (-00:0) 7.2 6.67 (20:00) 4.17 (20:00) 0 0 0 0 0
28-03-2020 15.2 (15:10) -1.7 (-00:0) 6.7 7.78 (23:59) 4.44 (08:30) 0 0 0 0 0
27-03-2020 10.9 (13:50) -2 (-00:0) 4.4 8.89 (15:30) 5.28 (15:30) 0 0 0 0 0
26-03-2020 13.2 (17:10) -1.1 (-00:0) 6 8.33 (15:00) 3.89 (15:40) 0 0 0 0 0
25-03-2020 14.5 (14:20) 1.5 (00:00) 8 8.61 (16:00) 4.72 (17:40) 3.4 0 0 0.2 3.2
24-03-2020 14.8 (15:20) 5 (00:00) 9.9 12.22 (12:50) 7.22 (12:50) 0.4 0.4 0 0 0
23-03-2020 13.1 (17:20) 2.4 (00:00) 7.8 10.83 (14:20) 6.39 (14:20) 0 0 0 0 0
22-03-2020 11.4 (13:20) -0.2 (08:10) 5.6 6.67 (17:00) 4.72 (15:50) 3.6 0 0 3.6 0
21-03-2020 10.1 (17:00) 2.2 (00:00) 6.2 9.17 (04:50) 6.11 (04:40) 7.2 2.6 4.6 0 0
20-03-2020 11.9 (12:30) 6.1 (00:00) 9 10.28 (12:50) 5.83 (13:10) 1.8 0 0.8 0 1
19-03-2020 14.5 (15:20) 6.9 (00:00) 10.7 6.67 (09:10) 3.89 (05:00) 0 0 0 0 0
18-03-2020 16.3 (15:00) 1.8 (00:00) 9 7.5 (13:40) 4.17 (13:40) 0 0 0 0 0
17-03-2020 14.1 (17:20) -2.1 (-00:0) 6 9.17 (03:20) 5.28 (03:20) 0 0 0 0 0
16-03-2020 2.1 (00:00) -0.1 (00:00) 1 8.61 (10:10) 4.44 (12:10) 33.4 2.4 8.6 19.2 3.2
15-03-2020 16.2 (15:00) 0.6 (00:00) 8.4 13.89 (15:50) 8.89 (15:40) 0 0 0 0 0
14-03-2020 18.3 (16:20) 2.4 (00:00) 10.3 7.22 (14:50) 4.17 (14:50) 0 0 0 0 0
13-03-2020 15.7 (16:20) 3.3 (08:10) 9.5 7.5 (12:30) 5 (16:30) 0 0 0 0 0
12-03-2020 22.6 (13:20) 5.7 (00:00) 14.2 7.5 (12:40) 4.72 (12:40) 0 0 0 0 0
11-03-2020 24 (14:00) 4.2 (00:00) 14.1 9.17 (17:30) 6.39 (16:40) 0 0 0 0 0
10-03-2020 22.6 (16:40) 0.8 (00:00) 11.7 7.22 (16:20) 3.89 (16:30) 0 0 0 0 0
09-03-2020 14.5 (16:30) 0.1 (00:00) 7.3 7.22 (14:20) 3.89 (15:10) 0 0 0 0 0
08-03-2020 14.1 (13:30) -3.9 (-00:0) 5.1 6.67 (14:30) 3.89 (12:40) 0 0 0 0 0
07-03-2020 14.4 (16:20) -2.3 (-00:0) 6 6.39 (17:10) 3.06 (16:50) 0 0 0 0 0
06-03-2020 8.6 (16:30) 2.1 (00:00) 5.4 13.89 (08:10) 6.67 (14:10) 1 0.8 0.2 0 0
05-03-2020 10.6 (17:20) 4.4 (00:00) 7.5 17.22 (05:30) 11.94 (05:20) 1 0 1 0 0
04-03-2020 13.7 (17:30) 4.8 (00:00) 9.3 10.28 (15:30) 5.28 (15:30) 0 0 0 0 0
03-03-2020 11.7 (15:30) 1.8 (00:00) 6.7 10.56 (13:00) 4.72 (13:00) 0.6 0 0 0.2 0.4
02-03-2020 10.4 (05:30) 1.9 (00:00) 6.1 25 (05:30) 14.44 (00:40) 10 9 0.6 0.4 0

Gráficas

Temp. máximas Temp. mínimas Temp. medias Precipitaciones Rachas de viento máximas Velocidades máximas media en intervalos de 10 minutos

Datos horarios

Fecha y hora oficial Temperatura (ºC) Velocidad del viento (km/h) Dirección del viento Racha (km/h) Dirección de racha Precipitación (mm) Presión (hPa) Tendencia (hPa) Humedad (%)
2020-03-31 23:00:00 4.8 9 Sudoeste 17 Sudoeste 0 -- -- 90
2020-03-31 22:00:00 5.6 10 Sudoeste 22 Sur 0.2 -- -- 87
2020-03-31 21:00:00 6 11 Sudoeste 15 Sudeste 0.8 -- -- 87
2020-03-31 20:00:00 7.5 9 Sur 21 Sudeste 0.2 -- -- 79
2020-03-31 19:00:00 8.1 6 Sudeste 19 Sur 0.4 -- -- 77
2020-03-31 18:00:00 8.7 10 Sur 19 Sur 0 -- -- 74
2020-03-31 17:00:00 8.6 14 Sur 27 Sur 0 -- -- 71
2020-03-31 16:00:00 8.9 9 Oeste 16 Oeste 0 -- -- 67
2020-03-31 15:00:00 9.1 4 Este 13 Sur 0 -- -- 71
2020-03-31 14:00:00 7.4 6 Sur 18 Sudeste 0 -- -- 70
2020-03-31 13:00:00 5.7 9 Sudeste 22 Sudeste 0 -- -- 79
2020-03-31 12:00:00 5.7 13 Sudeste 21 Sudeste 0 -- -- 78
2020-03-31 11:00:00 4.3 4 Sudeste 13 Este 0 -- -- 88
2020-03-31 10:00:00 1.4 3 Este 14 Sudoeste 0 -- -- 88
2020-03-31 09:00:00 1 9 Sudoeste 20 Sudoeste 0 -- -- 87
2020-03-31 08:00:00 0 5 Oeste 11 Oeste 0 -- -- 92
2020-03-31 07:00:00 -0.3 2 Sudeste 12 Sudoeste 0 -- -- 91
2020-03-31 06:00:00 -0.5 5 Oeste 10 Sudoeste 0 -- -- 92
2020-03-31 05:00:00 0.1 7 Sudoeste 14 Sudoeste 0 -- -- 88
2020-03-31 04:00:00 -0.3 2 Sur 5 Este 0 -- -- 92
2020-03-31 03:00:00 -0.2 0 Calma 5 Oeste 0 -- -- 92
2020-03-31 02:00:00 -0.2 0 Calma 11 Norte 0 -- -- 91
2020-03-31 01:00:00 -0.1 6 Norte 10 Norte 0 -- -- 91
2020-03-31 00:00:00 -0.3 3 Noroeste 12 Noroeste 0 -- -- 92
2020-03-30 23:00:00 -0.2 8 Norte 14 Noroeste 0.2 -- -- 93
2020-03-30 22:00:00 -0.3 7 Noroeste 15 Norte 0.2 -- -- 94
2020-03-30 21:00:00 0 8 Norte 13 Noroeste 0.6 -- -- 94
2020-03-30 20:00:00 0.3 5 Norte 15 Norte 0.6 -- -- 93
2020-03-30 19:00:00 0.5 8 Norte 18 Noroeste 0.6 -- -- 92
2020-03-30 18:00:00 1.2 11 Norte 18 Noroeste 0 -- -- 88
2020-03-30 17:00:00 2.1 3 Este 8 Este 0 -- -- 86
2020-03-30 16:00:00 1.9 4 Nordeste 18 Norte 0 -- -- 88
2020-03-30 15:00:00 1 13 Noroeste 23 Norte 0 -- -- 90
2020-03-30 14:00:00 1.3 9 Norte 17 Norte 0.2 -- -- 90
2020-03-30 13:00:00 0.7 9 Norte 20 Norte 1.6 -- -- 91
2020-03-30 12:00:00 1 10 Norte 20 Norte 0.6 -- -- 92
2020-03-30 11:00:00 1 10 Norte 23 Noroeste 1.2 -- -- 90
2020-03-30 10:00:00 0.7 7 Noroeste 22 Noroeste 2 -- -- 91
2020-03-30 09:00:00 2.8 14 Norte 26 Oeste 0 -- -- 80
2020-03-30 08:00:00 3.5 13 Noroeste 22 Noroeste 0 -- -- 80
2020-03-30 07:00:00 3.9 9 Norte 22 Norte 0 -- -- 80
2020-03-30 06:00:00 4.3 9 Norte 21 Norte 0 -- -- 80
2020-03-30 05:00:00 4.8 10 Norte 20 Norte 0 -- -- 77
2020-03-30 04:00:00 5.8 9 Norte 21 Norte 0 -- -- 73
2020-03-30 03:00:00 5.8 6 Sudoeste 10 Oeste 0 -- -- 79
2020-03-30 02:00:00 6.6 2 Sudeste 10 Nordeste 0 -- -- 78
2020-03-30 01:00:00 7 2 Norte 8 Sudoeste 0 -- -- 74
2020-03-30 00:00:00 7.2 2 Sur 7 Sudoeste 0 -- -- 73
2020-03-29 23:00:00 8.4 4 Oeste 6 Sudoeste 0 -- -- 66
2020-03-29 22:00:00 10.3 4 Oeste 15 Sudoeste 0 -- -- 58
2020-03-29 21:00:00 10.8 7 Oeste 23 Oeste 0 -- -- 55
2020-03-29 20:00:00 11.9 15 Sudoeste 24 Sudoeste 0 -- -- 52
2020-03-29 19:00:00 13.6 5 Norte 16 Noroeste 0 -- -- 45
2020-03-29 18:00:00 14 8 Noroeste 21 Norte 0 -- -- 44
2020-03-29 17:00:00 14.2 4 Norte 17 Noroeste 0 -- -- 46
2020-03-29 16:00:00 15.5 10 Nordeste 18 Nordeste 0 -- -- 42
2020-03-29 15:00:00 15 5 Norte 18 Nordeste 0 -- -- 40
2020-03-29 14:00:00 13.8 9 Norte 19 Norte 0 -- -- 41
2020-03-29 13:00:00 12.7 6 Norte 15 Norte 0 -- -- 48
2020-03-29 12:00:00 10.7 5 Nordeste 10 Este 0 -- -- 52
2020-03-29 11:00:00 7.5 0 Calma 4 Oeste 0 -- -- 65
2020-03-29 10:00:00 2.8 0 Calma 12 Oeste 0 -- -- 78
2020-03-29 09:00:00 -0.7 7 Oeste 14 Sudoeste 0 -- -- 87
2020-03-29 08:00:00 -1 8 Sudoeste 13 Sudoeste 0 -- -- 86
2020-03-29 07:00:00 -0.7 8 Sudoeste 13 Sudoeste 0 -- -- 85
2020-03-29 06:00:00 -0.2 7 Oeste 10 Sudoeste 0 -- -- 84
2020-03-29 05:00:00 0.4 7 Sudoeste 14 Sudoeste 0 -- -- 82
2020-03-29 03:00:00 0.9 9 Sudoeste 15 Sudoeste 0 -- -- 81
2020-03-29 01:00:00 2.4 7 Sudoeste 19 Sudoeste 0 -- -- 74
2020-03-29 00:00:00 4.5 16 Sudoeste 28 Sur 0 -- -- 66
2020-03-28 23:00:00 4 8 Sudoeste 13 Sudoeste 0 -- -- 68
2020-03-28 22:00:00 5.4 2 Sudoeste 6 Sudoeste 0 -- -- 65
2020-03-28 21:00:00 8.1 5 Sudoeste 15 Oeste 0 -- -- 51
2020-03-28 20:00:00 9.7 10 Oeste 23 Oeste 0 -- -- 45
2020-03-28 19:00:00 11.5 14 Oeste 23 Oeste 0 -- -- 43
2020-03-28 18:00:00 13.5 12 Norte 25 Norte 0 -- -- 41
2020-03-28 17:00:00 14.2 12 Noroeste 23 Noroeste 0 -- -- 40
2020-03-28 16:00:00 14.8 13 Norte 22 Nordeste 0 -- -- 37
2020-03-28 15:00:00 14.9 5 Sudoeste 21 Sur 0 -- -- 38
2020-03-28 14:00:00 14.2 9 Sudoeste 17 Sudoeste 0 -- -- 34
2020-03-28 13:00:00 13.4 6 Este 12 Este 0 -- -- 39
2020-03-28 12:00:00 12 8 Noroeste 16 Oeste 0 -- -- 43
2020-03-28 11:00:00 10.3 4 Noroeste 9 Sur 0 -- -- 46
2020-03-28 10:00:00 7.9 5 Sudeste 17 Sudoeste 0 -- -- 62
2020-03-28 09:00:00 3.1 11 Sudoeste 25 Sur 0 -- -- 72
2020-03-28 08:00:00 -0.4 13 Sudoeste 21 Sudoeste 0 -- -- 81
2020-03-28 07:00:00 -0.7 12 Oeste 18 Sudoeste 0 -- -- 81
2020-03-28 06:00:00 -1 7 Oeste 19 Sudoeste 0 -- -- 84
2020-03-28 05:00:00 -0.7 11 Sudoeste 17 Sudoeste 0 -- -- 81
2020-03-28 04:00:00 -1.2 13 Sudoeste 23 Sudoeste 0 -- -- 81
2020-03-28 03:00:00 -0.2 9 Sudoeste 21 Oeste 0 -- -- 79
2020-03-28 02:00:00 -1.2 11 Sudoeste 16 Oeste 0 -- -- 82
2020-03-28 01:00:00 -0.6 11 Oeste 16 Sur 0 -- -- 80
2020-03-28 00:00:00 0.5 6 Sudoeste 13 Oeste 0 -- -- 75
2020-03-27 23:00:00 1.6 8 Sudoeste 15 Oeste 0 -- -- 73
2020-03-27 22:00:00 2.9 6 Sudoeste 9 Sudeste 0 -- -- 69
2020-03-27 21:00:00 4.1 4 Sur 20 Este 0 -- -- 63
2020-03-27 20:00:00 6.4 10 Este 15 Este 0 -- -- 54
2020-03-27 19:00:00 8.4 9 Este 19 Este 0 -- -- 49
2020-03-27 18:00:00 9.3 12 Sudeste 27 Este 0 -- -- 48
2020-03-27 17:00:00 9.6 16 Sudeste 32 Este 0 -- -- 45
2020-03-27 16:00:00 10.2 17 Este 32 Sudeste 0 -- -- 46
2020-03-27 15:00:00 9.9 19 Este 31 Nordeste 0 -- -- 46
2020-03-27 14:00:00 10.7 17 Este 27 Este 0 -- -- 44
2020-03-27 13:00:00 9.8 9 Este 23 Sudeste 0 -- -- 46
2020-03-27 12:00:00 8.7 8 Norte 21 Norte 0 -- -- 50
2020-03-27 11:00:00 7.1 5 Nordeste 17 Norte 0 -- -- 59
2020-03-27 10:00:00 5.1 4 Este 12 Sudoeste 0 -- -- 64
2020-03-27 09:00:00 0.9 10 Sudoeste 13 Sudoeste 0 -- -- 86
2020-03-27 08:00:00 -1.9 4 Oeste 10 Nordeste 0 -- -- 89
2020-03-27 07:00:00 -1.3 0 Calma 12 Oeste 0 -- -- 88
2020-03-27 06:00:00 -0.3 8 Nordeste 12 Este 0 -- -- 85
2020-03-27 05:00:00 -0.9 5 Este 10 Sudoeste 0 -- -- 86
2020-03-27 04:00:00 -0.4 5 Sudoeste 8 Este 0 -- -- 85
2020-03-27 03:00:00 0.5 5 Nordeste 9 Nordeste 0 -- -- 84
2020-03-27 02:00:00 0.8 0 Calma 8 Nordeste 0 -- -- 81
2020-03-27 01:00:00 1.1 5 Sur 10 Noroeste 0 -- -- 79
2020-03-27 00:00:00 2.5 9 Sudoeste 16 Oeste 0 -- -- 73
2020-03-26 23:00:00 3.2 4 Sudoeste 12 Sudoeste 0 -- -- 71
2020-03-26 22:00:00 3.7 6 Sudoeste 12 Oeste 0 -- -- 71
2020-03-26 21:00:00 5.9 5 Sudoeste 7 Sudoeste 0 -- -- 61
2020-03-26 20:00:00 9.3 0 Calma 9 Nordeste 0 -- -- 49
2020-03-26 19:00:00 11.8 7 Nordeste 18 Nordeste 0 -- -- 38
2020-03-26 18:00:00 12.5 8 Nordeste 22 Norte 0 -- -- 38
2020-03-26 17:00:00 12.9 10 Norte 25 Norte 0 -- -- 35
2020-03-26 16:00:00 12.8 12 Norte 27 Norte 0 -- -- 39
2020-03-26 15:00:00 12.7 12 Norte 30 Noroeste 0 -- -- 36
2020-03-26 14:00:00 12.7 9 Norte 23 Nordeste 0 -- -- 32
2020-03-26 13:00:00 12.1 10 Nordeste 19 Este 0 -- -- 39
2020-03-26 12:00:00 11 9 Norte 19 Norte 0 -- -- 36
2020-03-26 11:00:00 9.9 7 Nordeste 12 Norte 0 -- -- 34
2020-03-26 10:00:00 6.8 3 Sudeste 6 Sudeste 0 -- -- 75
2020-03-26 09:00:00 2.3 2 Este 6 Este 0 -- -- 90
2020-03-26 08:00:00 -0.6 3 Sudoeste 9 Sudoeste 0 -- -- 94
2020-03-26 07:00:00 -0.7 4 Oeste 6 Oeste 0 -- -- 92
2020-03-26 06:00:00 0.6 2 Sudoeste 9 Oeste 0 -- -- 91
2020-03-26 05:00:00 1.5 6 Oeste 8 Oeste 0 -- -- 91
2020-03-26 04:00:00 2.9 5 Oeste 9 Oeste 0 -- -- 89
2020-03-26 03:00:00 4.5 0 Calma 6 Oeste 0 -- -- 83
2020-03-26 02:00:00 7.3 4 Norte 13 Norte 0 -- -- 70
2020-03-26 01:00:00 8.9 7 Norte 27 Noroeste 0 -- -- 68
2020-03-26 00:00:00 7.1 4 Este 8 Este 0 -- -- 89
2020-03-25 23:00:00 7.3 3 Oeste 14 Oeste 0 -- -- 87
2020-03-25 22:00:00 7.6 8 Sudoeste 19 Sur 0 -- -- 85
2020-03-25 21:00:00 7.8 14 Sur 21 Sur 1.2 -- -- 86
2020-03-25 20:00:00 8.7 7 Este 14 Oeste 1.4 -- -- 85
2020-03-25 19:00:00 9.1 11 Sudoeste 24 Norte 0.6 -- -- 83
2020-03-25 18:00:00 9.9 8 Este 30 Nordeste 0.2 -- -- 74
2020-03-25 17:00:00 14 5 Nordeste 21 Noroeste 0 -- -- 51
2020-03-25 16:00:00 13.5 15 Noroeste 31 Noroeste 0 -- -- 54
2020-03-25 15:00:00 13.1 9 Norte 30 Norte 0 -- -- 59
2020-03-25 14:00:00 14.1 12 Noroeste 24 Noroeste 0 -- -- 56
2020-03-25 13:00:00 12.5 10 Noroeste 19 Norte 0 -- -- 61
2020-03-25 12:00:00 12.1 5 Nordeste 15 Nordeste 0 -- -- 62
2020-03-25 11:00:00 11 3 Este 12 Nordeste 0 -- -- 69
2020-03-25 10:00:00 8.2 3 Este 6 Este 0 -- -- 78
2020-03-25 09:00:00 4.4 0 Calma 8 Oeste 0 -- -- 91
2020-03-25 08:00:00 2 4 Oeste 9 Sudoeste 0 -- -- 91
2020-03-25 07:00:00 2 5 Sudoeste 16 Sudoeste 0 -- -- 92
2020-03-25 06:00:00 1.6 8 Oeste 12 Sudoeste 0 -- -- 92
2020-03-25 05:00:00 2 8 Oeste 11 Sudoeste 0 -- -- 91
2020-03-25 04:00:00 2.3 5 Sudoeste 13 Oeste 0 -- -- 90
2020-03-25 03:00:00 3.1 9 Sudoeste 14 Sudoeste 0 -- -- 88
2020-03-25 02:00:00 3.9 9 Sudoeste 15 Sudoeste 0 -- -- 86
2020-03-25 01:00:00 5.1 13 Sudoeste 19 Sudoeste 0 -- -- 82
2020-03-25 00:00:00 5.8 8 Sudoeste 15 Sur 0 -- -- 81
2020-03-24 23:00:00 7.5 4 Sudoeste 9 Sur 0 -- -- 75
2020-03-24 22:00:00 8.9 2 Sudeste 6 Sudoeste 0 -- -- 71
2020-03-24 21:00:00 10 4 Oeste 16 Sudeste 0 -- -- 66
2020-03-24 20:00:00 10.2 10 Este 28 Sudeste 0 -- -- 65
2020-03-24 19:00:00 11 14 Este 27 Sudeste 0 -- -- 59
2020-03-24 18:00:00 12.2 9 Este 27 Sudeste 0 -- -- 55
2020-03-24 17:00:00 13.4 15 Este 33 Sudeste 0 -- -- 54
2020-03-24 16:00:00 13.3 14 Sudeste 38 Sudeste 0 -- -- 55
2020-03-24 15:00:00 14.4 22 Este 39 Este 0 -- -- 54
2020-03-24 14:00:00 12.1 13 Este 35 Este 0 -- -- 58
2020-03-24 13:00:00 10.7 20 Sudeste 44 Este 0 -- -- 63
2020-03-24 12:00:00 10.4 21 Este 37 Este 0 -- -- 65
2020-03-24 11:00:00 9.8 17 Este 33 Este 0 -- -- 68
2020-03-24 10:00:00 10.6 10 Este 29 Este 0 -- -- 66
2020-03-24 09:00:00 7.8 4 Sudoeste 21 Nordeste 0 -- -- 82
2020-03-24 08:00:00 5.9 4 Oeste 14 Noroeste 0 -- -- 86
2020-03-24 07:00:00 5.1 7 Oeste 11 Oeste 0 -- -- 88
2020-03-24 06:00:00 5.9 7 Sudoeste 12 Sudoeste 0 -- -- 86
2020-03-24 05:00:00 7.2 5 Nordeste 17 Sudeste 0 -- -- 79
2020-03-24 04:00:00 6.9 8 Sur 23 Sur 0 -- -- 82
2020-03-24 03:00:00 6.8 9 Sur 18 Sur 0.4 -- -- 85
2020-03-24 02:00:00 6 0 Calma 8 Este 0 -- -- 83
2020-03-24 01:00:00 5.4 3 Norte 8 Oeste 0 -- -- 85
2020-03-24 00:00:00 5 3 Sudoeste 6 Sudoeste 0 -- -- 83
2020-03-23 23:00:00 5.6 3 Oeste 6 Oeste 0 -- -- 80
2020-03-23 22:00:00 7 4 Sudoeste 9 Oeste 0 -- -- 74
2020-03-23 21:00:00 7.5 6 Sudeste 10 Este 0 -- -- 72
2020-03-23 20:00:00 8.2 4 Sudoeste 24 Este 0 -- -- 65
2020-03-23 19:00:00 10.2 17 Este 36 Este 0 -- -- 58
2020-03-23 18:00:00 12 15 Este 28 Este 0 -- -- 53
2020-03-23 17:00:00 12.6 19 Este 37 Este 0 -- -- 48
2020-03-23 16:00:00 12.3 18 Este 34 Este 0 -- -- 56
2020-03-23 15:00:00 10.2 13 Este 39 Este 0 -- -- 69
2020-03-23 14:00:00 11.6 10 Nordeste 24 Nordeste 0 -- -- 57
2020-03-23 13:00:00 10.9 16 Este 33 Este 0 -- -- 59
2020-03-23 12:00:00 9.4 6 Noroeste 10 Noroeste 0 -- -- 70
2020-03-23 11:00:00 8.7 4 Nordeste 7 Nordeste 0 -- -- 77
2020-03-23 10:00:00 6.3 2 Este 6 Nordeste 0 -- -- 91
2020-03-23 09:00:00 4.9 3 Oeste 8 Sudoeste 0 -- -- 92
2020-03-23 08:00:00 2.6 4 Sudoeste 10 Oeste 0 -- -- 96
2020-03-23 07:00:00 2.6 0 Calma 9 Sudeste 0 -- -- 94
2020-03-23 06:00:00 2.4 5 Sudoeste 10 Sudoeste 0 -- -- 94
2020-03-23 05:00:00 3 0 Calma 6 Sudoeste 0 -- -- 93
2020-03-23 04:00:00 4.3 4 Noroeste 8 Norte 0 -- -- 93
2020-03-23 03:00:00 4.7 3 Oeste 8 Oeste 0 -- -- 92
2020-03-23 02:00:00 5.1 5 Sur 9 Oeste 0 -- -- 91
2020-03-23 01:00:00 6 4 Oeste 8 Sudoeste 0 -- -- 88
2020-03-23 00:00:00 6.3 3 Sudoeste 8 Sudoeste 0 -- -- 92
2020-03-22 23:00:00 6.5 0 Calma 6 Sudoeste 0 -- -- 91
2020-03-22 22:00:00 6.7 3 Sudeste 11 Norte 0 -- -- 89
2020-03-22 21:00:00 7 3 Sudoeste 10 Sudoeste 0 -- -- 86
2020-03-22 20:00:00 7.1 8 Oeste 12 Oeste 0 -- -- 88
2020-03-22 19:00:00 7 5 Sur 15 Oeste 0 -- -- 86
2020-03-22 18:00:00 7 13 Sudoeste 23 Oeste 0.2 -- -- 82
2020-03-22 17:00:00 6.7 16 Oeste 24 Oeste 2.2 -- -- 86
2020-03-22 16:00:00 8 12 Sur 22 Sur 1.2 -- -- 81
2020-03-22 15:00:00 10.6 9 Noroeste 23 Norte 0 -- -- 64
2020-03-22 14:00:00 11.2 9 Norte 24 Norte 0 -- -- 59
2020-03-22 13:00:00 11 10 Norte 19 Norte 0 -- -- 63
2020-03-22 12:00:00 9.5 8 Norte 22 Este 0 -- -- 63
2020-03-22 11:00:00 8.5 8 Este 21 Este 0 -- -- 66
2020-03-22 10:00:00 7.1 2 Nordeste 9 Oeste 0 -- -- 75
2020-03-22 09:00:00 2.5 4 Sudoeste 12 Oeste 0 -- -- 91
2020-03-22 08:00:00 -0.1 6 Oeste 11 Sudoeste 0 -- -- 92
2020-03-22 07:00:00 0.5 5 Sudoeste 10 Sudoeste 0 -- -- 91
2020-03-22 06:00:00 0.8 8 Sudoeste 13 Sur 0 -- -- 92
2020-03-22 05:00:00 0.8 8 Sudoeste 11 Sudoeste 0 -- -- 92
2020-03-22 04:00:00 0.9 8 Sudoeste 16 Sudoeste 0 -- -- 92
2020-03-22 03:00:00 1.2 9 Sudoeste 13 Sudoeste 0 -- -- 91
2020-03-22 02:00:00 1.5 7 Sudoeste 22 Sudoeste 0 -- -- 89
2020-03-22 01:00:00 2.1 9 Sudoeste 12 Sudoeste 0 -- -- 88
2020-03-22 00:00:00 2.2 5 Sudoeste 12 Sudoeste 0 -- -- 87
2020-03-21 23:00:00 2.7 9 Sudoeste 12 Sudoeste 0 -- -- 88
2020-03-21 22:00:00 3.7 7 Oeste 9 Oeste 0 -- -- 89
2020-03-21 21:00:00 5.6 2 Nordeste 11 Nordeste 0 -- -- 85
2020-03-21 20:00:00 6.8 5 Norte 16 Norte 0 -- -- 81
2020-03-21 19:00:00 8.4 9 Norte 19 Norte 0 -- -- 76
2020-03-21 18:00:00 9.3 13 Norte 22 Norte 0 -- -- 72
2020-03-21 17:00:00 10.1 11 Oeste 19 Oeste 0 -- -- 67
2020-03-21 16:00:00 8.5 11 Oeste 24 Sur 0 -- -- 74
2020-03-21 15:00:00 9.2 14 Sur 20 Sur 0 -- -- 59
2020-03-21 14:00:00 8.3 8 Sudeste 23 Sur 0 -- -- 68
2020-03-21 13:00:00 6.8 10 Sudoeste 22 Sudoeste 0 -- -- 81
2020-03-21 12:00:00 6.3 15 Sudoeste 29 Sudoeste 0 -- -- 79
2020-03-21 11:00:00 5 20 Sudoeste 31 Sudoeste 1.4 -- -- 87
2020-03-21 10:00:00 7 11 Sur 16 Sudoeste 0.2 -- -- 84
2020-03-21 09:00:00 6.7 13 Sur 18 Sur 0.2 -- -- 88
2020-03-21 08:00:00 6.9 3 Nordeste 12 Norte 1.6 -- -- 94
2020-03-21 07:00:00 6.8 6 Norte 15 Sur 1.2 -- -- 93
2020-03-21 06:00:00 7.7 15 Sur 25 Sudoeste 0.8 -- -- 87
2020-03-21 05:00:00 7.5 17 Sur 33 Sudoeste 1.2 -- -- 89
2020-03-21 04:00:00 7.8 16 Sur 31 Sur 0.2 -- -- 87
2020-03-21 03:00:00 8.2 18 Sur 28 Sur 0.2 -- -- 84
2020-03-21 02:00:00 8.9 12 Sudoeste 27 Sur 0.2 -- -- 79
2020-03-21 01:00:00 9 17 Sur 27 Sudoeste 0 -- -- 78
2020-03-21 00:00:00 9 10 Sur 24 Sur 0 -- -- 77
2020-03-20 23:00:00 9.2 12 Sudoeste 20 Sur 0 -- -- 80
2020-03-20 22:00:00 9 9 Sudoeste 19 Sudoeste 0.2 -- -- 82
2020-03-20 21:00:00 9.3 15 Sur 22 Sudoeste 0.8 -- -- 81
2020-03-20 20:00:00 9.7 9 Oeste 18 Sudoeste 0 -- -- 77
2020-03-20 19:00:00 9.8 9 Sudoeste 23 Sur 0 -- -- 77
2020-03-20 18:00:00 10.1 8 Sur 20 Sudeste 0 -- -- 75
2020-03-20 17:00:00 10.2 10 Sudeste 20 Sur 0 -- -- 76
2020-03-20 16:00:00 10.1 12 Sur 26 Sudeste 0 -- -- 75
2020-03-20 15:00:00 10.8 14 Sudeste 25 Sudeste 0 -- -- 75
2020-03-20 14:00:00 9.8 11 Sudeste 32 Sudeste 0 -- -- 76
2020-03-20 13:00:00 10.7 18 Sudeste 37 Sudeste 0 -- -- 74
2020-03-20 12:00:00 11.5 12 Sudeste 24 Sudeste 0 -- -- 72
2020-03-20 11:00:00 10.5 12 Sudeste 26 Sudeste 0.2 -- -- 81
2020-03-20 10:00:00 8.8 10 Sudeste 19 Sur 0.6 -- -- 82
2020-03-20 09:00:00 7.5 10 Sudoeste 19 Sur 0 -- -- 82
2020-03-20 08:00:00 6.7 9 Oeste 20 Sudeste 0 -- -- 81
2020-03-20 07:00:00 6.8 9 Oeste 19 Sur 0 -- -- 82
2020-03-20 06:00:00 6.9 12 Sudoeste 28 Sudoeste 0 -- -- 79
2020-03-20 05:00:00 8.1 13 Sur 23 Sur 0 -- -- 77
2020-03-20 04:00:00 8.7 13 Sudeste 28 Sur 0 -- -- 75
2020-03-20 03:00:00 8.4 14 Sudeste 28 Sudeste 0 -- -- 77
2020-03-20 02:00:00 8.6 12 Sudeste 22 Sudeste 0 -- -- 75
2020-03-20 01:00:00 9.1 7 Sudeste 21 Sudeste 0 -- -- 70
2020-03-20 00:00:00 9.3 7 Sudeste 22 Sudeste 0 -- -- 69
2020-03-19 23:00:00 9.7 10 Sur 22 Sudeste 0 -- -- 68
2020-03-19 22:00:00 9.9 11 Sur 19 Sudeste 0 -- -- 67
2020-03-19 21:00:00 10.2 6 Sudeste 21 Sudeste 0 -- -- 65
2020-03-19 20:00:00 10.6 13 Sudeste 19 Sudeste 0 -- -- 63
2020-03-19 19:00:00 12.4 0 Calma 8 Norte 0 -- -- 71
2020-03-19 18:00:00 13.2 5 Norte 11 Norte 0 -- -- 65
2020-03-19 17:00:00 14 5 Norte 10 Norte 0 -- -- 59
2020-03-19 16:00:00 14.4 5 Norte 10 Norte 0 -- -- 55
2020-03-19 15:00:00 14.4 3 Nordeste 9 Norte 0 -- -- 55
2020-03-19 14:00:00 14.1 2 Sudeste 5 Este 0 -- -- 52
2020-03-19 13:00:00 13.7 0 Calma 8 Este 0 -- -- 58
2020-03-19 12:00:00 13.2 3 Noroeste 6 Este 0 -- -- 61
2020-03-19 11:00:00 11.7 3 Este 7 Este 0 -- -- 70
2020-03-19 10:00:00 10.3 5 Sur 24 Sur 0 -- -- 75
2020-03-19 09:00:00 7.5 11 Sudoeste 17 Sudoeste 0 -- -- 80
2020-03-19 08:00:00 7.2 10 Oeste 24 Sur 0 -- -- 79
2020-03-19 07:00:00 7.8 9 Sudoeste 18 Oeste 0 -- -- 79
2020-03-19 06:00:00 7.9 11 Sudoeste 18 Sudoeste 0 -- -- 77
2020-03-19 05:00:00 8 14 Sudoeste 20 Sudoeste 0 -- -- 76
2020-03-19 04:00:00 7.8 8 Oeste 15 Oeste 0 -- -- 76
2020-03-19 03:00:00 7.5 6 Oeste 14 Oeste 0 -- -- 76
2020-03-19 02:00:00 7.2 12 Sudoeste 17 Sudoeste 0 -- -- 78
2020-03-19 01:00:00 8.5 9 Sudoeste 15 Sudoeste 0 -- -- 73
2020-03-19 00:00:00 8.9 10 Sudoeste 14 Oeste 0 -- -- 73
2020-03-18 23:00:00 9.9 7 Oeste 19 Sur 0 -- -- 69
2020-03-18 22:00:00 10.9 8 Sudoeste 14 Sudoeste 0 -- -- 65
2020-03-18 21:00:00 11.3 10 Sudeste 18 Sudeste 0 -- -- 63
2020-03-18 20:00:00 11.8 10 Sudeste 25 Sudeste 0 -- -- 62
2020-03-18 19:00:00 12.9 14 Sudeste 23 Sudeste 0 -- -- 57
2020-03-18 18:00:00 14.5 5 Sudeste 13 Este 0 -- -- 54
2020-03-18 17:00:00 15.5 9 Sudeste 18 Sudeste 0 -- -- 50
2020-03-18 16:00:00 16.2 8 Sur 21 Sur 0 -- -- 46
2020-03-18 15:00:00 16.3 12 Sur 24 Sur 0 -- -- 44
2020-03-18 14:00:00 15.3 11 Sur 27 Sur 0 -- -- 46
2020-03-18 13:00:00 14.8 0 Calma 5 Sudeste 0 -- -- 47
2020-03-18 12:00:00 12.4 2 Sudeste 12 Sur 0 -- -- 58
2020-03-18 11:00:00 8.7 2 Sudeste 10 Este 0 -- -- 74
2020-03-18 10:00:00 5.9 3 Nordeste 9 Nordeste 0 -- -- 81
2020-03-18 09:00:00 4.7 5 Oeste 13 Oeste 0 -- -- 85
2020-03-18 08:00:00 3.3 6 Oeste 14 Oeste 0 -- -- 88
2020-03-18 07:00:00 2.4 3 Sudoeste 8 Sudoeste 0 -- -- 93
2020-03-18 06:00:00 2.4 5 Sudoeste 9 Sudoeste 0 -- -- 93
2020-03-18 05:00:00 2.2 5 Sur 10 Sudoeste 0 -- -- 92
2020-03-18 04:00:00 3.1 9 Sudoeste 13 Sudoeste 0 -- -- 92
2020-03-18 03:00:00 2.3 5 Sudoeste 9 Sudoeste 0 -- -- 92
2020-03-18 02:00:00 2.3 5 Sudoeste 9 Este 0 -- -- 91
2020-03-18 01:00:00 3.4 5 Oeste 10 Oeste 0 -- -- 90
2020-03-18 00:00:00 3.8 8 Sudoeste 12 Oeste 0 -- -- 89
2020-03-17 23:00:00 4.9 4 Sudoeste 14 Este 0 -- -- 82
2020-03-17 22:00:00 5.5 5 Oeste 9 Sudoeste 0 -- -- 82
2020-03-17 21:00:00 5.9 5 Oeste 8 Oeste 0 -- -- 78
2020-03-17 20:00:00 7.6 2 Nordeste 9 Sudoeste 0 -- -- 71
2020-03-17 19:00:00 11 2 Sudeste 12 Oeste 0 -- -- 61
2020-03-17 18:00:00 12.9 5 Noroeste 20 Noroeste 0 -- -- 56
2020-03-17 17:00:00 13.2 4 Sudeste 21 Noroeste 0 -- -- 48
2020-03-17 16:00:00 11.8 11 Noroeste 19 Noroeste 0 -- -- 56
2020-03-17 15:00:00 11.3 3 Oeste 14 Norte 0 -- -- 54
2020-03-17 14:00:00 11.9 4 Norte 14 Nordeste 0 -- -- 55
2020-03-17 13:00:00 10.2 7 Norte 13 Oeste 0 -- -- 58
2020-03-17 12:00:00 9.1 4 Oeste 7 Sudeste 0 -- -- 60
2020-03-17 11:00:00 5.7 3 Sur 12 Sur 0 -- -- 72
2020-03-17 10:00:00 1.4 4 Sudoeste 13 Sudoeste 0 -- -- 81
2020-03-17 09:00:00 -0.7 9 Sudoeste 15 Sudoeste 0 -- -- 86
2020-03-17 08:00:00 -1.7 6 Sudoeste 11 Sudoeste 0 -- -- 88
2020-03-17 07:00:00 -0.8 4 Oeste 11 Sudeste 0 -- -- 86
2020-03-17 06:00:00 -0.5 4 Sudoeste 12 Sudoeste 0 -- -- 85
2020-03-17 05:00:00 -0.8 5 Sudoeste 11 Sudoeste 0 -- -- 84
2020-03-17 04:00:00 1.5 8 Sudeste 33 Este 0 -- -- 73
2020-03-17 03:00:00 2.4 12 Este 27 Este 0 -- -- 70
2020-03-17 02:00:00 0 10 Este 17 Este 0 -- -- 85
2020-03-17 01:00:00 0.5 4 Sudoeste 12 Sudoeste 0 -- -- 86
2020-03-17 00:00:00 0.8 4 Sudoeste 26 Este 0 -- -- 89
2020-03-16 23:00:00 0.3 2 Sur 8 Este 0.2 -- -- 96
2020-03-16 22:00:00 0.4 3 Este 13 Norte 0.8 -- -- 95
2020-03-16 21:00:00 0.6 6 Norte 16 Norte 0.6 -- -- 95
2020-03-16 20:00:00 0.7 8 Norte 15 Norte 0.6 -- -- 95
2020-03-16 19:00:00 1 5 Nordeste 19 Norte 1 -- -- 95
2020-03-16 18:00:00 0.8 9 Norte 20 Norte 2.6 -- -- 95
2020-03-16 17:00:00 0.5 7 Norte 20 Norte 4.8 -- -- 95
2020-03-16 16:00:00 0.5 10 Norte 27 Norte 4.6 -- -- 94
2020-03-16 15:00:00 0.5 10 Norte 24 Norte 3.6 -- -- 95
2020-03-16 14:00:00 0.5 14 Norte 31 Norte 2 -- -- 94
2020-03-16 13:00:00 0.6 11 Norte 27 Norte 1.6 -- -- 93
2020-03-16 12:00:00 0.5 15 Norte 29 Norte 2.4 -- -- 94
2020-03-16 11:00:00 0.2 12 Norte 31 Noroeste 1.2 -- -- 94
2020-03-16 10:00:00 0.1 15 Norte 27 Norte 1.8 -- -- 94
2020-03-16 09:00:00 0 10 Norte 22 Norte 1.2 -- -- 95
2020-03-16 08:00:00 -0.1 7 Norte 14 Norte 1.2 -- -- 94
2020-03-16 07:00:00 0 5 Norte 17 Noroeste 0.8 -- -- 94
2020-03-16 06:00:00 0 8 Norte 20 Norte 0.4 -- -- 93
2020-03-16 05:00:00 0.1 12 Noroeste 23 Noroeste 0.6 -- -- 93
2020-03-16 04:00:00 0.3 4 Norte 15 Nordeste 0.2 -- -- 92
2020-03-16 03:00:00 0.8 5 Norte 17 Noroeste 0 -- -- 85
2020-03-16 02:00:00 0.8 8 Norte 25 Norte 0.2 -- -- 85
2020-03-16 01:00:00 1.1 4 Nordeste 11 Nordeste 1 -- -- 91
2020-03-16 00:00:00 2.1 8 Nordeste 30 Norte 0 -- -- 86
2020-03-15 23:00:00 3 13 Norte 44 Norte 0 -- -- 84
2020-03-15 22:00:00 7.1 19 Noroeste 41 Norte 0 -- -- 74
2020-03-15 21:00:00 8.7 9 Oeste 27 Sudoeste 0 -- -- 67
2020-03-15 20:00:00 10.1 21 Sudoeste 34 Sudoeste 0 -- -- 59
2020-03-15 19:00:00 11.8 26 Sudoeste 45 Oeste 0 -- -- 67
2020-03-15 18:00:00 13.8 17 Sudoeste 36 Sudoeste 0 -- -- 63
2020-03-15 17:00:00 14.6 25 Sudoeste 48 Sudoeste 0 -- -- 55
2020-03-15 16:00:00 14.9 28 Sudoeste 50 Sudoeste 0 -- -- 52
2020-03-15 15:00:00 16.2 31 Sudoeste 46 Oeste 0 -- -- 58
2020-03-15 14:00:00 15.2 28 Sudoeste 42 Sudoeste 0 -- -- 62
2020-03-15 13:00:00 15.6 28 Sudoeste 47 Sudoeste 0 -- -- 61
2020-03-15 12:00:00 14.7 24 Sudoeste 38 Sudoeste 0 -- -- 65
2020-03-15 11:00:00 14.8 24 Sudoeste 36 Oeste 0 -- -- 59
2020-03-15 10:00:00 9.7 3 Oeste 9 Este 0 -- -- 76
2020-03-15 09:00:00 2.6 0 Calma 8 Oeste 0 -- -- 83
2020-03-15 08:00:00 0.6 4 Sudoeste 14 Sudoeste 0 -- -- 85
2020-03-15 07:00:00 2.2 9 Sudoeste 16 Sudoeste 0 -- -- 81
2020-03-15 06:00:00 1.3 9 Sudoeste 16 Sudoeste 0 -- -- 84
2020-03-15 05:00:00 2.2 12 Oeste 21 Sudoeste 0 -- -- 80
2020-03-15 04:00:00 2.4 14 Sudoeste 20 Sudoeste 0 -- -- 81
2020-03-15 03:00:00 3.2 12 Sudoeste 19 Sudoeste 0 -- -- 77
2020-03-15 02:00:00 4 10 Sudoeste 16 Sudoeste 0 -- -- 75
2020-03-15 01:00:00 4.2 10 Sudoeste 18 Sudoeste 0 -- -- 75
2020-03-15 00:00:00 5.3 12 Sudoeste 17 Sudoeste 0 -- -- 71
2020-03-14 23:00:00 6.3 10 Sudoeste 13 Sudoeste 0 -- -- 68
2020-03-14 22:00:00 7.3 8 Sudoeste 12 Sudoeste 0 -- -- 64
2020-03-14 21:00:00 9.7 5 Sudoeste 9 Norte 0 -- -- 57
2020-03-14 20:00:00 12.7 6 Este 17 Noroeste 0 -- -- 47
2020-03-14 19:00:00 16.2 8 Norte 17 Noroeste 0 -- -- 38
2020-03-14 18:00:00 17.6 10 Noroeste 20 Noroeste 0 -- -- 32
2020-03-14 17:00:00 18.1 12 Norte 23 Noroeste 0 -- -- 31
2020-03-14 16:00:00 18.1 11 Noroeste 19 Norte 0 -- -- 33
2020-03-14 15:00:00 17.3 13 Norte 26 Noroeste 0 -- -- 39
2020-03-14 14:00:00 16.9 14 Norte 24 Norte 0 -- -- 48
2020-03-14 13:00:00 16.7 12 Norte 22 Norte 0 -- -- 42
2020-03-14 12:00:00 14.9 8 Nordeste 15 Norte 0 -- -- 54
2020-03-14 11:00:00 12.4 7 Nordeste 13 Nordeste 0 -- -- 66
2020-03-14 10:00:00 9 5 Este 13 Sudoeste 0 -- -- 79
2020-03-14 09:00:00 5 11 Sudoeste 19 Sur 0 -- -- 91
2020-03-14 08:00:00 2.8 11 Sudoeste 16 Sudoeste 0 -- -- 94
2020-03-14 07:00:00 2.4 9 Sudoeste 12 Oeste 0 -- -- 92
2020-03-14 06:00:00 3.9 4 Sudoeste 12 Sudoeste 0 -- -- 92
2020-03-14 05:00:00 4.7 10 Sudoeste 15 Sudoeste 0 -- -- 93
2020-03-14 04:00:00 5.6 4 Sudoeste 9 Sudoeste 0 -- -- 89
2020-03-14 03:00:00 6.2 3 Oeste 7 Oeste 0 -- -- 88
2020-03-14 02:00:00 6.7 3 Sudoeste 7 Sudoeste 0 -- -- 91
2020-03-14 01:00:00 6.1 2 Sur 10 Este 0 -- -- 89
2020-03-14 00:00:00 6.5 0 Calma 10 Nordeste 0 -- -- 88
2020-03-13 23:00:00 8 5 Nordeste 10 Nordeste 0 -- -- 85
2020-03-13 22:00:00 10.4 3 Sudoeste 6 Norte 0 -- -- 77
2020-03-13 21:00:00 12.5 4 Norte 18 Norte 0 -- -- 72
2020-03-13 20:00:00 13 4 Norte 14 Noroeste 0 -- -- 72
2020-03-13 19:00:00 13.4 8 Norte 19 Norte 0 -- -- 71
2020-03-13 18:00:00 13.7 9 Norte 24 Noroeste 0 -- -- 69
2020-03-13 17:00:00 14.8 14 Noroeste 27 Norte 0 -- -- 67
2020-03-13 16:00:00 15.6 13 Norte 22 Norte 0 -- -- 64
2020-03-13 15:00:00 14.3 11 Norte 27 Norte 0 -- -- 70
2020-03-13 14:00:00 12.6 13 Norte 27 Norte 0 -- -- 77
2020-03-13 13:00:00 11.9 12 Norte 27 Norte 0 -- -- 79
2020-03-13 12:00:00 9.8 12 Norte 23 Nordeste 0 -- -- 85
2020-03-13 11:00:00 7.5 7 Nordeste 15 Nordeste 0 -- -- 96
2020-03-13 10:00:00 6.4 7 Nordeste 13 Nordeste 0 -- -- 96
2020-03-13 09:00:00 3.9 3 Nordeste 6 Oeste 0 -- -- 96
2020-03-13 08:00:00 3.5 0 Calma 9 Norte 0 -- -- 94
2020-03-13 07:00:00 3.9 3 Norte 12 Sudoeste 0 -- -- 91
2020-03-13 06:00:00 3.9 8 Sudoeste 12 Sudoeste 0 -- -- 91
2020-03-13 05:00:00 4.6 5 Sudoeste 12 Oeste 0 -- -- 88
2020-03-13 04:00:00 5.4 5 Oeste 8 Oeste 0 -- -- 88
2020-03-13 03:00:00 7 3 Sur 13 Oeste 0 -- -- 83
2020-03-13 02:00:00 8.4 10 Sudoeste 14 Sudoeste 0 -- -- 79
2020-03-13 01:00:00 9.2 8 Sudoeste 12 Sudoeste 0 -- -- 76
2020-03-13 00:00:00 9.5 9 Sudoeste 12 Sudoeste 0 -- -- 76
2020-03-12 23:00:00 9.8 5 Sudoeste 8 Sudoeste 0 -- -- 75
2020-03-12 22:00:00 11.3 4 Sudoeste 6 Nordeste 0 -- -- 73
2020-03-12 21:00:00 13.7 6 Nordeste 10 Este 0 -- -- 66
2020-03-12 20:00:00 16.5 3 Noroeste 10 Norte 0 -- -- 53
2020-03-12 19:00:00 17.9 4 Norte 15 Norte 0 -- -- 53
2020-03-12 18:00:00 19.5 5 Norte 13 Norte 0 -- -- 47
2020-03-12 17:00:00 20.8 5 Sudoeste 14 Oeste 0 -- -- 30
2020-03-12 16:00:00 20.8 11 Sur 21 Sur 0 -- -- 31
2020-03-12 15:00:00 21.9 12 Sudoeste 19 Sur 0 -- -- 33
2020-03-12 14:00:00 21.5 11 Sudoeste 27 Sur 0 -- -- 35
2020-03-12 13:00:00 22.1 16 Sur 27 Sudeste 0 -- -- 39
2020-03-12 12:00:00 21.5 9 Sudoeste 26 Sur 0 -- -- 39
2020-03-12 11:00:00 18.8 3 Noroeste 12 Noroeste 0 -- -- 42
2020-03-12 10:00:00 12 2 Nordeste 8 Norte 0 -- -- 74
2020-03-12 09:00:00 9 3 Nordeste 11 Sudeste 0 -- -- 72
2020-03-12 08:00:00 7.5 4 Nordeste 8 Este 0 -- -- 74
2020-03-12 07:00:00 6.2 0 Calma 8 Norte 0 -- -- 79
2020-03-12 06:00:00 6.1 2 Noroeste 11 Norte 0 -- -- 78
2020-03-12 05:00:00 5.7 4 Sudeste 9 Sudoeste 0 -- -- 80
2020-03-12 04:00:00 5.8 2 Noroeste 8 Este 0 -- -- 78
2020-03-12 03:00:00 6 2 Nordeste 10 Oeste 0 -- -- 75
2020-03-12 02:00:00 7.9 4 Oeste 12 Oeste 0 -- -- 67
2020-03-12 01:00:00 8.3 9 Sudoeste 14 Sudoeste 0 -- -- 67
2020-03-12 00:00:00 10 9 Sudoeste 15 Sudoeste 0 -- -- 61
2020-03-11 23:00:00 10.4 3 Sur 13 Oeste 0 -- -- 63
2020-03-11 22:00:00 12.1 7 Sudoeste 10 Sudoeste 0 -- -- 58
2020-03-11 21:00:00 13.4 2 Sur 8 Este 0 -- -- 57
2020-03-11 20:00:00 16.6 3 Este 15 Oeste 0 -- -- 51
2020-03-11 19:00:00 18.5 8 Sudoeste 25 Sudoeste 0 -- -- 47
2020-03-11 18:00:00 19.7 17 Sudoeste 33 Sudoeste 0 -- -- 42
2020-03-11 17:00:00 21.3 21 Sudoeste 32 Sudoeste 0 -- -- 43
2020-03-11 16:00:00 22.4 21 Sudoeste 33 Sudoeste 0 -- -- 38
2020-03-11 15:00:00 23.8 20 Sudoeste 28 Sudoeste 0 -- -- 27
2020-03-11 14:00:00 24 14 Oeste 24 Sudoeste 0 -- -- 31
2020-03-11 13:00:00 22.5 12 Norte 24 Norte 0 -- -- 37
2020-03-11 12:00:00 20.6 5 Nordeste 11 Nordeste 0 -- -- 41
2020-03-11 11:00:00 17.6 0 Calma 6 Sur 0 -- -- 56
2020-03-11 10:00:00 12.5 4 Sudoeste 15 Sudoeste 0 -- -- 66
2020-03-11 09:00:00 7.7 7 Sudoeste 16 Sudoeste 0 -- -- 77
2020-03-11 08:00:00 4.7 10 Oeste 17 Sudoeste 0 -- -- 83
2020-03-11 07:00:00 4.2 10 Sudoeste 15 Sudoeste 0 -- -- 85
2020-03-11 06:00:00 4.8 9 Oeste 17 Sudoeste 0 -- -- 83
2020-03-11 05:00:00 6.1 12 Sudoeste 21 Sudoeste 0 -- -- 80
2020-03-11 04:00:00 5.9 11 Sudoeste 17 Sudoeste 0 -- -- 82
2020-03-11 03:00:00 6.5 10 Sudoeste 20 Oeste 0 -- -- 81
2020-03-11 02:00:00 6.9 13 Sudoeste 19 Sudoeste 0 -- -- 79
2020-03-11 01:00:00 7 9 Sudoeste 14 Sudoeste 0 -- -- 80
2020-03-11 00:00:00 7.8 9 Sudoeste 14 Sudoeste 0 -- -- 78
2020-03-10 23:00:00 8.8 4 Sudoeste 10 Sudoeste 0 -- -- 74
2020-03-10 22:00:00 10 5 Sudoeste 6 Sudoeste 0 -- -- 71
2020-03-10 21:00:00 12.7 4 Sudoeste 9 Oeste 0 -- -- 62
2020-03-10 20:00:00 16.6 2 Oeste 7 Norte 0 -- -- 51
2020-03-10 19:00:00 20.4 3 Noroeste 13 Norte 0 -- -- 40
2020-03-10 18:00:00 21.7 7 Norte 21 Noroeste 0 -- -- 39
2020-03-10 17:00:00 22.4 10 Noroeste 26 Norte 0 -- -- 37
2020-03-10 16:00:00 22.3 11 Nordeste 21 Nordeste 0 -- -- 36
2020-03-10 15:00:00 21.4 6 Nordeste 20 Norte 0 -- -- 40
2020-03-10 14:00:00 20.9 6 Nordeste 12 Nordeste 0 -- -- 38
2020-03-10 13:00:00 19.2 0 Calma 7 Oeste 0 -- -- 44
2020-03-10 12:00:00 15 4 Nordeste 8 Norte 0 -- -- 54
2020-03-10 11:00:00 11.7 6 Este 13 Nordeste 0 -- -- 64
2020-03-10 10:00:00 8 8 Sudoeste 17 Sudoeste 0 -- -- 73
2020-03-10 09:00:00 3.5 10 Oeste 16 Sudoeste 0 -- -- 86
2020-03-10 08:00:00 1.6 11 Sudoeste 14 Sudoeste 0 -- -- 88
2020-03-10 07:00:00 1 7 Oeste 10 Sudoeste 0 -- -- 89
2020-03-10 06:00:00 1.5 2 Oeste 6 Oeste 0 -- -- 84
2020-03-10 05:00:00 2.2 3 Sudoeste 9 Oeste 0 -- -- 81
2020-03-10 04:00:00 3.4 6 Sudoeste 15 Sudoeste 0 -- -- 78
2020-03-10 03:00:00 3 10 Sudoeste 14 Sudoeste 0 -- -- 78
2020-03-10 02:00:00 2.9 7 Sudoeste 9 Sudoeste 0 -- -- 77
2020-03-10 01:00:00 3.5 5 Sudoeste 15 Sudoeste 0 -- -- 73
2020-03-10 00:00:00 4.3 10 Sudoeste 13 Sudoeste 0 -- -- 70
2020-03-09 23:00:00 4.8 6 Oeste 9 Sudoeste 0 -- -- 68
2020-03-09 22:00:00 5.5 5 Sudoeste 7 Sudoeste 0 -- -- 65
2020-03-09 21:00:00 7.4 3 Sudoeste 6 Sudoeste 0 -- -- 59
2020-03-09 20:00:00 9.8 3 Este 11 Norte 0 -- -- 50
2020-03-09 19:00:00 12.2 6 Nordeste 20 Nordeste 0 -- -- 40
2020-03-09 18:00:00 14 6 Norte 14 Norte 0 -- -- 33
2020-03-09 17:00:00 14.3 10 Nordeste 19 Nordeste 0 -- -- 32
2020-03-09 16:00:00 14.3 9 Nordeste 26 Noroeste 0 -- -- 29
2020-03-09 15:00:00 14.2 11 Norte 26 Nordeste 0 -- -- 28
2020-03-09 14:00:00 14.2 9 Norte 24 Norte 0 -- -- 28
2020-03-09 13:00:00 12.9 3 Nordeste 10 Nordeste 0 -- -- 36
2020-03-09 12:00:00 10.1 3 Nordeste 12 Nordeste 0 -- -- 68
2020-03-09 11:00:00 7 4 Norte 9 Norte 0 -- -- 78
2020-03-09 10:00:00 4.1 4 Sur 10 Norte 0 -- -- 92
2020-03-09 09:00:00 1.7 5 Nordeste 11 Nordeste 0 -- -- 94
2020-03-09 08:00:00 0.4 0 Calma 5 Sudoeste 0 -- -- 93
2020-03-09 07:00:00 1.3 0 Calma 9 Este 0 -- -- 91
2020-03-09 06:00:00 2.5 2 Este 11 Sudeste 0 -- -- 90
2020-03-09 05:00:00 3.5 4 Sudeste 7 Sudeste 0 -- -- 89
2020-03-09 04:00:00 4.1 5 Sudeste 7 Sudeste 0 -- -- 89
2020-03-09 03:00:00 4.7 3 Sudeste 7 Sudeste 0 -- -- 91
2020-03-09 02:00:00 3.9 2 Sudoeste 5 Oeste 0 -- -- 88
2020-03-09 01:00:00 4.9 3 Nordeste 8 Noroeste 0 -- -- 90
2020-03-09 00:00:00 5 0 Calma 8 Oeste 0 -- -- 87
2020-03-08 23:00:00 6 4 Oeste 9 Oeste 0 -- -- 89
2020-03-08 22:00:00 7.2 3 Nordeste 8 Este 0 -- -- 83
2020-03-08 21:00:00 8.2 3 Este 21 Norte 0 -- -- 82
2020-03-08 20:00:00 9.4 9 Norte 16 Norte 0 -- -- 78
2020-03-08 19:00:00 10.7 9 Norte 21 Norte 0 -- -- 70
2020-03-08 18:00:00 12 6 Norte 19 Norte 0 -- -- 65
2020-03-08 17:00:00 11.7 8 Norte 19 Nordeste 0 -- -- 49
2020-03-08 16:00:00 11.8 7 Nordeste 21 Norte 0 -- -- 60
2020-03-08 15:00:00 12.2 7 Nordeste 24 Norte 0 -- -- 56
2020-03-08 14:00:00 13.5 6 Norte 15 Norte 0 -- -- 37
2020-03-08 13:00:00 13.7 8 Norte 22 Norte 0 -- -- 41
2020-03-08 12:00:00 11.8 6 Norte 11 Norte 0 -- -- 39
2020-03-08 11:00:00 7.4 4 Este 11 Sudeste 0 -- -- 57
2020-03-08 10:00:00 1.1 4 Sudoeste 8 Este 0 -- -- 74
2020-03-08 09:00:00 -1.5 4 Sudoeste 11 Sudoeste 0 -- -- 74
2020-03-08 08:00:00 -3 4 Sur 15 Oeste 0 -- -- 76
2020-03-08 07:00:00 -3.8 8 Sudoeste 14 Oeste 0 -- -- 83
2020-03-08 06:00:00 -2.8 4 Sudeste 14 Oeste 0 -- -- 83
2020-03-08 05:00:00 -2.1 4 Sudoeste 15 Sudoeste 0 -- -- 80
2020-03-08 04:00:00 -0.9 7 Sudoeste 15 Oeste 0 -- -- 79
2020-03-08 03:00:00 -0.3 11 Sudoeste 14 Sudoeste 0 -- -- 79
2020-03-08 02:00:00 0.2 9 Sudoeste 14 Sudoeste 0 -- -- 85
2020-03-08 01:00:00 0.7 10 Sudoeste 13 Sudoeste 0 -- -- 87
2020-03-08 00:00:00 1.5 5 Sudoeste 14 Sudoeste 0 -- -- 84
2020-03-07 23:00:00 2.7 8 Sudoeste 13 Oeste 0 -- -- 83
2020-03-07 22:00:00 4.2 3 Sudoeste 6 Oeste 0 -- -- 78
2020-03-07 21:00:00 5.9 0 Calma 8 Sudoeste 0 -- -- 73
2020-03-07 20:00:00 9.2 0 Calma 11 Norte 0 -- -- 62
2020-03-07 19:00:00 11.6 7 Nordeste 17 Nordeste 0 -- -- 54
2020-03-07 18:00:00 12.7 10 Nordeste 23 Norte 0 -- -- 52
2020-03-07 17:00:00 14 10 Norte 19 Nordeste 0 -- -- 48
2020-03-07 16:00:00 14.2 10 Norte 20 Norte 0 -- -- 46
2020-03-07 15:00:00 13.1 9 Nordeste 18 Nordeste 0 -- -- 48
2020-03-07 14:00:00 12.5 10 Nordeste 21 Nordeste 0 -- -- 52
2020-03-07 13:00:00 11.5 4 Noroeste 10 Noroeste 0 -- -- 49
2020-03-07 12:00:00 10.3 5 Nordeste 11 Oeste 0 -- -- 55
2020-03-07 11:00:00 7.8 7 Oeste 10 Oeste 0 -- -- 64
2020-03-07 10:00:00 3.3 4 Sudoeste 9 Oeste 0 -- -- 82
2020-03-07 09:00:00 -0.7 4 Sudoeste 8 Oeste 0 -- -- 92
2020-03-07 08:00:00 -1.8 0 Calma 5 Sudoeste 0 -- -- 91
2020-03-07 07:00:00 -2.1 0 Calma 7 Sudoeste 0 -- -- 89
2020-03-07 06:00:00 -1.7 5 Oeste 7 Oeste 0 -- -- 91
2020-03-07 05:00:00 -2 3 Este 5 Este 0 -- -- 89
2020-03-07 04:00:00 -1.5 3 Este 5 Este 0 -- -- 86
2020-03-07 03:00:00 -0.4 0 Calma 9 Este 0 -- -- 85
2020-03-07 02:00:00 0.2 0 Calma 8 Este 0 -- -- 83
2020-03-07 01:00:00 1.2 4 Este 10 Nordeste 0 -- -- 81
2020-03-07 00:00:00 2.1 4 Nordeste 14 Nordeste 0 -- -- 78
2020-03-06 23:00:00 3 8 Nordeste 15 Nordeste 0 -- -- 75
2020-03-06 22:00:00 3.2 7 Nordeste 14 Norte 0 -- -- 74
2020-03-06 21:00:00 3.9 5 Nordeste 19 Noroeste 0 -- -- 71
2020-03-06 20:00:00 5.2 13 Norte 28 Noroeste 0 -- -- 64
2020-03-06 19:00:00 6.4 14 Norte 34 Norte 0 -- -- 58
2020-03-06 18:00:00 7.6 17 Norte 37 Norte 0 -- -- 54
2020-03-06 17:00:00 7.9 19 Noroeste 41 Noroeste 0 -- -- 52
2020-03-06 16:00:00 8 20 Noroeste 41 Noroeste 0 -- -- 52
2020-03-06 15:00:00 8 19 Noroeste 49 Noroeste 0 -- -- 53
2020-03-06 14:00:00 6.6 23 Noroeste 44 Noroeste 0 -- -- 60
2020-03-06 13:00:00 5.9 22 Noroeste 44 Noroeste 0 -- -- 66
2020-03-06 12:00:00 4.7 21 Norte 41 Noroeste 0 -- -- 78
2020-03-06 11:00:00 4.1 20 Norte 40 Noroeste 0 -- -- 77
2020-03-06 10:00:00 3.8 12 Norte 33 Noroeste 0 -- -- 76
2020-03-06 09:00:00 3.3 15 Noroeste 50 Noroeste 0 -- -- 75
2020-03-06 08:00:00 3.4 18 Noroeste 39 Norte 0 -- -- 75
2020-03-06 07:00:00 4 18 Noroeste 35 Noroeste 0.2 -- -- 76
2020-03-06 06:00:00 4.4 14 Noroeste 37 Noroeste 0.6 -- -- 75
2020-03-06 05:00:00 4.9 10 Norte 42 Oeste 0.2 -- -- 86
2020-03-06 04:00:00 5.3 10 Noroeste 29 Oeste 0 -- -- 77
2020-03-06 03:00:00 4.9 8 Noroeste 33 Noroeste 0 -- -- 74
2020-03-06 02:00:00 3.4 8 Sudoeste 17 Sudoeste 0 -- -- 80
2020-03-06 01:00:00 4.3 7 Norte 20 Sudoeste 0 -- -- 77
2020-03-06 00:00:00 4.5 6 Norte 29 Oeste 0 -- -- 75
2020-03-05 23:00:00 5 11 Noroeste 32 Noroeste 0 -- -- 71
2020-03-05 22:00:00 5.6 14 Noroeste 44 Oeste 0 -- -- 73
2020-03-05 21:00:00 6.3 10 Noroeste 35 Noroeste 0 -- -- 73
2020-03-05 20:00:00 7.2 10 Noroeste 38 Noroeste 0 -- -- 67
2020-03-05 19:00:00 8.9 15 Oeste 32 Oeste 0 -- -- 61
2020-03-05 18:00:00 9.2 13 Noroeste 38 Oeste 0 -- -- 60
2020-03-05 17:00:00 10.4 13 Oeste 28 Noroeste 0 -- -- 56
2020-03-05 16:00:00 9.8 12 Oeste 28 Norte 0 -- -- 62
2020-03-05 15:00:00 9.7 13 Noroeste 31 Noroeste 0 -- -- 63
2020-03-05 14:00:00 9.3 15 Noroeste 42 Noroeste 0 -- -- 62
2020-03-05 13:00:00 8.5 10 Norte 21 Norte 0 -- -- 69
2020-03-05 12:00:00 9.5 14 Norte 29 Norte 0 -- -- 70
2020-03-05 11:00:00 9.5 13 Noroeste 52 Oeste 0.4 -- -- 76
2020-03-05 10:00:00 8.4 15 Noroeste 41 Noroeste 0.4 -- -- 87
2020-03-05 09:00:00 8.4 24 Sudoeste 51 Sudoeste 0.2 -- -- 90
2020-03-05 08:00:00 8.3 31 Sudoeste 54 Sudoeste 0 -- -- 88
2020-03-05 07:00:00 8.6 28 Sudoeste 56 Sudoeste 0 -- -- 87
2020-03-05 06:00:00 9.1 21 Sudoeste 62 Sudoeste 0 -- -- 85
2020-03-05 05:00:00 9 23 Sudoeste 38 Sudoeste 0 -- -- 83
2020-03-05 04:00:00 9.3 24 Sudoeste 45 Sudoeste 0 -- -- 83
2020-03-05 03:00:00 7.3 6 Sudeste 12 Sudeste 0 -- -- 85
2020-03-05 02:00:00 6.7 2 Oeste 11 Sudoeste 0 -- -- 88
2020-03-05 01:00:00 5.4 5 Sudoeste 10 Sudoeste 0 -- -- 90
2020-03-05 00:00:00 5 6 Sudoeste 14 Sudoeste 0 -- -- 88
2020-03-04 23:00:00 5.6 6 Sudoeste 13 Sudoeste 0 -- -- 87
2020-03-04 22:00:00 7 5 Oeste 15 Oeste 0 -- -- 84
2020-03-04 21:00:00 8 3 Sur 10 Oeste 0 -- -- 80
2020-03-04 20:00:00 10.4 4 Oeste 18 Norte 0 -- -- 73
2020-03-04 19:00:00 11.7 8 Norte 21 Norte 0 -- -- 68
2020-03-04 18:00:00 13.3 10 Norte 26 Noroeste 0 -- -- 58
2020-03-04 17:00:00 12.8 15 Noroeste 31 Noroeste 0 -- -- 60
2020-03-04 16:00:00 12.2 14 Norte 37 Norte 0 -- -- 65
2020-03-04 15:00:00 12.8 15 Norte 32 Noroeste 0 -- -- 60
2020-03-04 14:00:00 12 7 Nordeste 21 Norte 0 -- -- 68
2020-03-04 13:00:00 11.5 7 Nordeste 20 Noroeste 0 -- -- 73
2020-03-04 12:00:00 11 4 Norte 14 Norte 0 -- -- 73
2020-03-04 11:00:00 9.9 6 Nordeste 12 Nordeste 0 -- -- 78
2020-03-04 10:00:00 8.9 5 Norte 15 Norte 0 -- -- 85
2020-03-04 09:00:00 6.5 9 Norte 17 Norte 0 -- -- 97
2020-03-04 08:00:00 5.3 7 Oeste 11 Oeste 0 -- -- 95
2020-03-04 07:00:00 5.9 4 Oeste 8 Este 0 -- -- 93
2020-03-04 06:00:00 6.9 2 Este 17 Oeste 0 -- -- 92
2020-03-04 05:00:00 8.5 9 Oeste 19 Oeste 0 -- -- 92
2020-03-04 04:00:00 9 2 Oeste 14 Sur 0 -- -- 90
2020-03-04 03:00:00 9.9 3 Noroeste 13 Oeste 0 -- -- 90
2020-03-04 02:00:00 9.8 4 Norte 17 Nordeste 0 -- -- 92
2020-03-04 01:00:00 9.8 7 Nordeste 11 Nordeste 0 -- -- 92
2020-03-04 00:00:00 10.3 4 Nordeste 15 Noroeste 0 -- -- 90
2020-03-03 23:00:00 10.7 5 Norte 24 Noroeste 0 -- -- 87
2020-03-03 22:00:00 10.4 6 Norte 18 Norte 0.2 -- -- 90
2020-03-03 21:00:00 10.2 5 Nordeste 19 Norte 0.2 -- -- 93
2020-03-03 20:00:00 10.7 4 Norte 24 Norte 0 -- -- 89
2020-03-03 19:00:00 10.6 6 Norte 34 Oeste 0 -- -- 90
2020-03-03 18:00:00 11.5 16 Noroeste 37 Noroeste 0.2 -- -- 83
2020-03-03 17:00:00 11.2 9 Noroeste 24 Norte 0 -- -- 86
2020-03-03 16:00:00 11 10 Norte 31 Noroeste 0 -- -- 85
2020-03-03 15:00:00 11.2 10 Norte 31 Noroeste 0 -- -- 83
2020-03-03 14:00:00 11 9 Noroeste 36 Noroeste 0 -- -- 79
2020-03-03 13:00:00 11.2 17 Oeste 38 Oeste 0 -- -- 73
2020-03-03 12:00:00 9.9 10 Sur 27 Sur 0 -- -- 71
2020-03-03 11:00:00 9 14 Sur 23 Sur 0 -- -- 74
2020-03-03 10:00:00 8.5 5 Sudeste 18 Este 0 -- -- 77
2020-03-03 09:00:00 7.5 12 Sur 33 Oeste 0 -- -- 76
2020-03-03 08:00:00 5.1 5 Este 19 Este 0 -- -- 81
2020-03-03 07:00:00 4 3 Norte 27 Oeste 0 -- -- 80
2020-03-03 06:00:00 3.7 13 Oeste 26 Oeste 0 -- -- 79
2020-03-03 05:00:00 3.4 8 Sudoeste 11 Sudoeste 0 -- -- 80
2020-03-03 04:00:00 3.6 5 Sudoeste 19 Norte 0 -- -- 77
2020-03-03 03:00:00 3.3 4 Sudoeste 12 Noroeste 0 -- -- 78
2020-03-03 02:00:00 3.4 4 Noroeste 22 Noroeste 0 -- -- 74
2020-03-03 01:00:00 4.3 8 Noroeste 27 Norte 0 -- -- 70
2020-03-03 00:00:00 2 4 Nordeste 10 Este 0 -- -- 80
2020-03-02 23:00:00 1.9 7 Este 14 Nordeste 0 -- -- 81
2020-03-02 22:00:00 3.3 4 Nordeste 10 Nordeste 0 -- -- 74
2020-03-02 21:00:00 4.3 5 Norte 28 Oeste 0 -- -- 68
2020-03-02 20:00:00 4.8 14 Noroeste 37 Noroeste 0 -- -- 61
2020-03-02 19:00:00 5.1 6 Noroeste 27 Oeste 0 -- -- 66
2020-03-02 18:00:00 5.2 9 Noroeste 26 Noroeste 0 -- -- 72
2020-03-02 17:00:00 5.5 15 Noroeste 34 Noroeste 0 -- -- 70
2020-03-02 16:00:00 5.6 11 Norte 43 Noroeste 0 -- -- 74
2020-03-02 15:00:00 4 22 Noroeste 47 Noroeste 0 -- -- 80
2020-03-02 14:00:00 7.8 27 Noroeste 55 Noroeste 0.2 -- -- 57
2020-03-02 13:00:00 6 12 Noroeste 41 Oeste 0.2 -- -- 78
2020-03-02 12:00:00 6 22 Noroeste 49 Noroeste 0.6 -- -- 77
2020-03-02 11:00:00 5.8 16 Noroeste 41 Oeste 0 -- -- 73
2020-03-02 10:00:00 6.5 20 Noroeste 45 Oeste 0 -- -- 61
2020-03-02 09:00:00 6.2 17 Noroeste 58 Noroeste 0 -- -- 65
2020-03-02 08:00:00 7 26 Oeste 73 Oeste 0 -- -- 67
2020-03-02 07:00:00 8.6 34 Oeste 78 Noroeste 0 -- -- 62
2020-03-02 06:00:00 9.9 37 Oeste 90 Oeste 0.2 -- -- 70
2020-03-02 05:00:00 9.2 31 Sudoeste 55 Sudoeste 1.4 -- -- 91
2020-03-02 04:00:00 9.1 36 Sudoeste 64 Sudoeste 1.6 -- -- 91
2020-03-02 03:00:00 8.8 32 Sudoeste 63 Sudoeste 1.4 -- -- 91
2020-03-02 02:00:00 8.6 35 Sudoeste 84 Sudoeste 3 -- -- 90
2020-03-02 01:00:00 8.6 45 Sudoeste 85 Sudoeste 1.4 -- -- 90
2020-03-02 00:00:00 8.9 39 Sudoeste 69 Sudoeste 2.2 -- -- 90